createdAt,value
2022-09-15T00:00:13.723Z,16.10
2022-09-15T00:02:46.107Z,17.33
2022-09-15T00:05:15.976Z,15.38
2022-09-15T00:07:46.293Z,15.43
2022-09-15T00:10:16.372Z,16.45
2022-09-15T00:12:47.690Z,15.85
2022-09-15T00:15:19.026Z,17.13
2022-09-15T00:17:55.005Z,16.92
2022-09-15T00:20:25.601Z,16.20
2022-09-15T00:22:55.585Z,17.13
2022-09-15T00:25:25.641Z,17.20
2022-09-15T00:27:55.802Z,15.77
2022-09-15T00:30:26.401Z,16.38
2022-09-15T00:32:56.627Z,17.08
2022-09-15T00:35:26.794Z,17.17
2022-09-15T00:37:57.198Z,17.55
2022-09-15T00:40:28.830Z,18.40
2022-09-15T00:42:59.234Z,16.45
2022-09-15T00:45:29.031Z,17.27
2022-09-15T00:47:59.839Z,18.50
2022-09-15T00:50:30.655Z,18.48
2022-09-15T00:53:07.350Z,19.27
2022-09-15T00:55:56.153Z,24.63
2022-09-15T00:58:40.374Z,19.73
2022-09-15T01:01:10.921Z,19.55
2022-09-15T01:03:42.209Z,18.92
2022-09-15T01:06:36.751Z,19.70
2022-09-15T01:09:17.880Z,23.52
2022-09-15T01:11:48.247Z,22.38
2022-09-15T01:14:19.123Z,23.80
2022-09-15T01:16:56.978Z,23.83
2022-09-15T01:19:44.694Z,20.85
2022-09-15T01:22:33.256Z,20.85
2022-09-15T01:25:11.025Z,18.88
2022-09-15T01:28:04.911Z,19.13
2022-09-15T01:30:45.061Z,19.95
2022-09-15T01:33:45.649Z,18.88
2022-09-15T01:36:29.783Z,18.55
2022-09-15T01:39:14.812Z,18.17
2022-09-15T01:42:02.746Z,17.67
2022-09-15T01:44:42.091Z,18.42
2022-09-15T01:47:16.965Z,18.00
2022-09-15T01:50:01.303Z,19.52
2022-09-15T01:52:32.711Z,18.17
2022-09-15T01:55:11.758Z,18.15
2022-09-15T01:57:42.599Z,18.02
2022-09-15T02:00:13.040Z,17.48
2022-09-15T02:02:59.431Z,16.75
2022-09-15T02:05:51.203Z,26.60
2022-09-15T02:08:40.101Z,17.33
2022-09-15T02:11:22.020Z,17.08
2022-09-15T02:14:13.002Z,23.33
2022-09-15T02:16:50.492Z,20.75
2022-09-15T02:19:35.225Z,22.10
2022-09-15T02:22:18.998Z,19.45
2022-09-15T02:25:04.683Z,19.65
2022-09-15T02:27:40.338Z,19.67
2022-09-15T02:30:15.595Z,18.73
2022-09-15T02:32:59.822Z,41.20
2022-09-15T02:35:33.222Z,25.45
2022-09-15T02:38:05.541Z,21.63
2022-09-15T02:43:13.823Z,25.08
2022-09-15T02:45:45.546Z,20.70
2022-09-15T02:48:16.128Z,18.73
2022-09-15T02:50:46.842Z,18.48
2022-09-15T02:53:16.751Z,17.38
2022-09-15T02:55:46.222Z,18.23
2022-09-15T02:58:17.053Z,18.15
2022-09-15T03:00:46.922Z,19.52
2022-09-15T03:03:17.813Z,18.92
2022-09-15T03:05:47.587Z,18.52
2022-09-15T03:08:17.640Z,19.40
2022-09-15T03:10:48.320Z,19.05
2022-09-15T03:13:19.868Z,18.88
2022-09-15T03:15:50.972Z,18.65
2022-09-15T03:18:21.074Z,19.75
2022-09-15T03:20:50.544Z,19.65
2022-09-15T03:23:21.410Z,19.45
2022-09-15T03:25:51.384Z,19.73
2022-09-15T03:28:21.021Z,21.15
2022-09-15T03:30:51.676Z,19.80
2022-09-15T03:33:22.035Z,20.35
2022-09-15T03:35:53.754Z,19.73
2022-09-15T03:38:28.103Z,19.42
2022-09-15T03:41:00.302Z,20.35
2022-09-15T03:43:31.926Z,29.90
2022-09-15T03:46:03.105Z,22.83
2022-09-15T03:48:36.006Z,24.63
2022-09-15T03:51:07.410Z,21.83
2022-09-15T03:53:38.850Z,23.03
2022-09-15T03:56:27.498Z,25.65
2022-09-15T03:58:57.261Z,22.00
2022-09-15T04:01:27.128Z,24.45
2022-09-15T04:03:59.321Z,22.60
2022-09-15T04:06:29.453Z,22.15
2022-09-15T04:09:01.805Z,25.80
2022-09-15T04:11:32.207Z,22.05
2022-09-15T04:14:02.343Z,23.95
2022-09-15T04:16:31.923Z,22.20
2022-09-15T04:19:01.775Z,25.45
2022-09-15T04:21:33.211Z,33.42
2022-09-15T04:24:06.170Z,21.13
2022-09-15T04:26:38.866Z,20.55
2022-09-15T04:29:21.165Z,23.00
2022-09-15T04:31:51.699Z,21.08
2022-09-15T04:34:22.480Z,22.05
2022-09-15T04:36:52.850Z,22.73
2022-09-15T04:39:24.242Z,22.50
2022-09-15T04:41:54.166Z,23.65
2022-09-15T04:44:24.951Z,21.95
2022-09-15T04:46:54.883Z,22.58
2022-09-15T04:49:26.056Z,27.75
2022-09-15T04:51:56.460Z,24.17
2022-09-15T04:54:30.012Z,23.92
2022-09-15T04:56:59.992Z,25.67
2022-09-15T04:59:30.071Z,24.13
2022-09-15T05:02:00.243Z,24.50
2022-09-15T05:04:30.340Z,25.95
2022-09-15T05:07:00.377Z,28.20
2022-09-15T05:09:33.423Z,27.85
2022-09-15T05:12:04.019Z,26.90
2022-09-15T05:14:38.158Z,28.23
2022-09-15T05:17:08.070Z,27.70
2022-09-15T05:19:38.032Z,25.23
2022-09-15T05:22:07.959Z,26.13
2022-09-15T05:24:37.727Z,26.42
2022-09-15T05:27:07.943Z,30.65
2022-09-15T05:29:39.662Z,27.35
2022-09-15T05:32:11.283Z,29.13
2022-09-15T05:34:41.016Z,30.50
2022-09-15T05:37:11.901Z,32.42
2022-09-15T05:39:42.354Z,31.38
2022-09-15T05:42:12.654Z,28.02
2022-09-15T05:44:42.667Z,29.48
2022-09-15T05:47:14.249Z,30.75
2022-09-15T05:49:44.476Z,29.92
2022-09-15T05:52:14.374Z,32.30
2022-09-15T05:54:44.501Z,38.17
2022-09-15T05:57:15.187Z,38.38
2022-09-15T05:59:45.688Z,37.17
2022-09-15T06:02:16.021Z,41.80
2022-09-15T06:04:45.888Z,38.65
2022-09-15T06:07:21.123Z,39.03
2022-09-15T06:09:51.234Z,38.75
2022-09-15T06:12:21.971Z,41.30
2022-09-15T06:14:52.306Z,43.30
2022-09-15T06:17:24.679Z,49.50
2022-09-15T06:19:54.509Z,49.25
2022-09-15T06:22:24.004Z,46.58
2022-09-15T06:24:54.586Z,46.53
2022-09-15T06:27:24.440Z,47.63
2022-09-15T06:29:54.161Z,43.40
2022-09-15T06:32:25.109Z,40.38
2022-09-15T06:34:54.929Z,44.33
2022-09-15T06:37:25.339Z,45.38
2022-09-15T06:39:55.309Z,42.08
2022-09-15T06:42:25.729Z,45.38
2022-09-15T06:44:56.006Z,44.22
2022-09-15T06:47:26.157Z,46.47
2022-09-15T06:49:57.001Z,46.15
2022-09-15T06:52:27.712Z,45.37
2022-09-15T06:54:57.453Z,43.88
2022-09-15T06:57:28.149Z,42.75
2022-09-15T06:59:59.188Z,39.75
2022-09-15T07:02:30.398Z,40.60
2022-09-15T07:05:00.710Z,41.80
2022-09-15T07:07:31.743Z,42.90
2022-09-15T07:10:02.179Z,42.67
2022-09-15T07:12:33.984Z,43.88
2022-09-15T07:15:03.852Z,44.08
2022-09-15T07:17:38.981Z,42.15
2022-09-15T07:20:09.120Z,41.22
2022-09-15T07:22:40.260Z,43.78
2022-09-15T07:25:10.563Z,46.30
2022-09-15T07:27:41.705Z,41.80
2022-09-15T07:30:15.064Z,44.05
2022-09-15T07:32:45.473Z,49.20
2022-09-15T07:35:15.393Z,45.17
2022-09-15T07:37:46.630Z,40.38
2022-09-15T07:40:17.139Z,42.47
2022-09-15T07:42:47.874Z,41.63
2022-09-15T07:45:33.490Z,40.28
2022-09-15T07:48:05.327Z,40.88
2022-09-15T07:50:42.076Z,35.67
2022-09-15T07:53:13.989Z,35.33
2022-09-15T07:58:13.781Z,31.27
2022-09-15T08:00:44.307Z,31.10
2022-09-15T08:03:14.978Z,33.20
2022-09-15T08:05:45.814Z,32.78
2022-09-15T08:08:17.912Z,32.10
2022-09-15T08:10:56.950Z,32.30
2022-09-15T08:13:31.335Z,31.33
2022-09-15T08:16:16.933Z,31.95
2022-09-15T08:18:55.670Z,32.63
2022-09-15T08:21:27.395Z,34.65
2022-09-15T08:24:00.370Z,32.55
2022-09-15T08:26:32.868Z,31.55
2022-09-15T08:29:03.382Z,32.38
2022-09-15T08:31:34.179Z,31.70
2022-09-15T08:34:07.691Z,31.88
2022-09-15T08:36:37.952Z,31.27
2022-09-15T08:39:08.445Z,33.58
2022-09-15T08:41:48.220Z,30.75
2022-09-15T08:44:25.021Z,28.92
2022-09-15T08:47:00.749Z,29.95
2022-09-15T08:49:51.951Z,27.67
2022-09-15T08:52:32.175Z,30.40
2022-09-15T08:55:17.580Z,29.85
2022-09-15T08:57:47.967Z,30.58
2022-09-15T09:00:18.994Z,28.27
2022-09-15T09:03:20.764Z,27.70
2022-09-15T09:06:07.897Z,28.13
2022-09-15T09:08:49.771Z,29.00
2022-09-15T09:11:52.223Z,29.77
2022-09-15T09:14:56.133Z,29.20
2022-09-15T09:17:26.255Z,29.95
2022-09-15T09:20:03.545Z,29.02
2022-09-15T09:22:39.279Z,28.50
2022-09-15T09:25:27.090Z,28.15
2022-09-15T09:28:03.875Z,30.90
2022-09-15T09:30:37.023Z,29.92
2022-09-15T09:33:13.326Z,31.42
2022-09-15T09:35:51.049Z,28.27
2022-09-15T09:38:30.287Z,27.33
2022-09-15T09:41:02.484Z,26.83
2022-09-15T09:43:34.702Z,26.70
2022-09-15T09:46:12.502Z,24.23
2022-09-15T09:48:47.878Z,26.42
2022-09-15T09:51:38.278Z,23.35
2022-09-15T09:54:14.076Z,24.00
2022-09-15T09:56:52.466Z,23.35
2022-09-15T09:59:40.709Z,23.23
2022-09-15T10:02:10.834Z,21.75
2022-09-15T10:04:52.293Z,23.70
2022-09-15T10:07:35.544Z,22.83
2022-09-15T10:10:06.852Z,21.27
2022-09-15T10:12:43.364Z,23.97
2022-09-15T10:15:28.315Z,24.63
2022-09-15T10:18:00.070Z,22.65
2022-09-15T10:20:51.312Z,22.17
2022-09-15T10:23:24.271Z,24.15
2022-09-15T10:25:59.825Z,24.63
2022-09-15T10:28:31.514Z,24.10
2022-09-15T10:31:07.656Z,22.13
2022-09-15T10:33:43.487Z,24.95
2022-09-15T10:36:20.479Z,25.15
2022-09-15T10:39:14.488Z,23.98
2022-09-15T10:42:23.641Z,23.80
2022-09-15T10:45:05.685Z,26.02
2022-09-15T10:48:17.036Z,25.73
2022-09-15T10:51:06.461Z,25.52
2022-09-15T10:54:11.716Z,24.77
2022-09-15T10:56:44.435Z,23.50
2022-09-15T10:59:47.269Z,24.30
2022-09-15T11:02:44.896Z,23.65
2022-09-15T11:05:33.212Z,24.17
2022-09-15T11:08:06.070Z,26.27
2022-09-15T11:11:01.839Z,25.02
2022-09-15T11:13:43.348Z,24.55
2022-09-15T11:16:32.797Z,24.43
2022-09-15T11:19:04.625Z,24.50
2022-09-15T11:21:43.874Z,43.47
2022-09-15T11:24:14.202Z,30.48
2022-09-15T11:26:54.302Z,24.80
2022-09-15T11:29:45.809Z,25.45
2022-09-15T11:32:32.811Z,26.00
2022-09-15T11:35:32.974Z,25.90
2022-09-15T11:38:32.083Z,26.30
2022-09-15T11:41:36.300Z,27.85
2022-09-15T11:44:21.060Z,27.95
2022-09-15T11:47:03.429Z,27.95
2022-09-15T11:50:06.923Z,27.30
2022-09-15T11:52:55.374Z,26.60
2022-09-15T11:55:40.360Z,25.23
2022-09-15T11:58:58.647Z,26.10
2022-09-15T12:01:50.023Z,25.17
2022-09-15T12:04:34.304Z,28.25
2022-09-15T12:07:04.332Z,26.60
2022-09-15T12:09:35.648Z,24.55
2022-09-15T12:12:13.841Z,26.10
2022-09-15T12:14:47.221Z,37.63
2022-09-15T12:17:25.878Z,47.00
2022-09-15T12:20:24.078Z,58.28
2022-09-15T12:23:13.619Z,35.15
2022-09-15T12:26:06.996Z,27.65
2022-09-15T12:28:44.728Z,28.20
2022-09-15T12:31:32.404Z,27.40
2022-09-15T12:34:06.342Z,27.60
2022-09-15T12:36:51.127Z,29.13
2022-09-15T12:39:25.760Z,30.92
2022-09-15T12:42:06.812Z,31.45
2022-09-15T12:44:44.133Z,38.20
2022-09-15T12:47:22.931Z,39.58
2022-09-15T12:49:55.582Z,33.45
2022-09-15T12:52:27.417Z,37.47
2022-09-15T12:55:04.688Z,33.30
2022-09-15T12:57:39.581Z,31.33
2022-09-15T13:00:33.725Z,33.40
2022-09-15T13:03:09.188Z,35.95
2022-09-15T13:05:47.695Z,37.30
2022-09-15T13:08:40.100Z,32.63
2022-09-15T13:11:40.340Z,39.25
2022-09-15T13:14:11.979Z,36.03
2022-09-15T13:16:48.238Z,36.88
2022-09-15T13:19:26.412Z,37.45
2022-09-15T13:22:20.106Z,38.05
2022-09-15T13:25:26.755Z,33.45
2022-09-15T13:28:02.484Z,34.03
2022-09-15T13:31:04.540Z,32.47
2022-09-15T13:40:54.325Z,30.13
2022-09-15T13:43:45.641Z,32.22
2022-09-15T13:46:29.586Z,31.75
2022-09-15T13:49:20.565Z,29.38
2022-09-15T13:52:09.886Z,30.95
2022-09-15T13:54:39.913Z,31.55
2022-09-15T13:57:10.611Z,31.77
2022-09-15T13:59:42.675Z,33.58
2022-09-15T14:02:17.499Z,34.50
2022-09-15T14:04:53.338Z,35.47
2022-09-15T14:07:26.402Z,35.50
2022-09-15T14:09:56.381Z,37.53
2022-09-15T14:12:26.582Z,34.50
2022-09-15T14:15:02.496Z,35.60
2022-09-15T14:17:46.046Z,35.78
2022-09-15T14:20:27.561Z,54.95
2022-09-15T14:22:57.438Z,60.40
2022-09-15T14:25:29.691Z,39.78
2022-09-15T14:30:33.675Z,35.72
2022-09-15T14:33:05.343Z,35.78
2022-09-15T14:35:39.692Z,35.67
2022-09-15T14:38:20.825Z,34.38
2022-09-15T14:40:58.528Z,34.53
2022-09-15T14:43:34.022Z,34.88
2022-09-15T14:46:15.247Z,38.05
2022-09-15T14:48:45.489Z,38.27
2022-09-15T14:51:24.876Z,37.33
2022-09-15T14:53:59.295Z,38.40
2022-09-15T14:56:37.740Z,36.67
2022-09-15T14:59:13.864Z,39.33
2022-09-15T15:02:12.017Z,36.95
2022-09-15T15:04:44.784Z,34.72
2022-09-15T15:07:27.614Z,36.38
2022-09-15T15:10:15.162Z,35.50
2022-09-15T15:13:00.866Z,34.85
2022-09-15T15:15:33.290Z,35.58
2022-09-15T15:20:33.317Z,37.40
2022-09-15T15:23:28.569Z,37.08
2022-09-15T15:26:35.641Z,37.67
2022-09-15T15:29:31.060Z,35.78
2022-09-15T15:32:18.487Z,37.97
2022-09-15T15:35:00.015Z,41.08
2022-09-15T15:37:33.659Z,35.70
2022-09-15T15:40:07.260Z,35.10
2022-09-15T15:42:37.569Z,36.05
2022-09-15T15:45:25.689Z,37.17
2022-09-15T15:47:55.883Z,39.03
2022-09-15T15:50:29.645Z,37.67
2022-09-15T15:53:00.227Z,38.63
2022-09-15T15:55:42.177Z,38.70
2022-09-15T15:58:13.924Z,40.03
2022-09-15T16:00:48.062Z,39.28
2022-09-15T16:03:23.479Z,39.42
2022-09-15T16:05:59.937Z,38.63
2022-09-15T16:08:34.662Z,39.08
2022-09-15T16:11:12.063Z,40.65
2022-09-15T16:13:47.413Z,43.13
2022-09-15T16:16:26.892Z,40.17
2022-09-15T16:18:58.311Z,39.55
2022-09-15T16:21:40.361Z,40.65
2022-09-15T16:26:50.638Z,36.72
2022-09-15T16:29:29.424Z,38.03
2022-09-15T16:32:00.135Z,38.30
2022-09-15T16:34:30.391Z,39.13
2022-09-15T16:37:00.330Z,39.40
2022-09-15T16:39:31.115Z,39.08
2022-09-15T16:42:00.990Z,43.33
2022-09-15T16:44:31.414Z,45.67
2022-09-15T16:47:01.514Z,45.65
2022-09-15T16:49:31.778Z,46.85
2022-09-15T16:52:01.295Z,46.83
2022-09-15T16:54:31.465Z,46.08
2022-09-15T16:57:01.441Z,46.97
2022-09-15T16:59:33.326Z,45.78
2022-09-15T17:02:03.404Z,44.47
2022-09-15T17:04:33.812Z,42.95
2022-09-15T17:07:03.926Z,45.28
2022-09-15T17:09:34.567Z,43.95
2022-09-15T17:12:06.163Z,43.65
2022-09-15T17:14:36.545Z,42.88
2022-09-15T17:17:06.526Z,45.60
2022-09-15T17:19:36.980Z,43.00
2022-09-15T17:22:07.020Z,44.67
2022-09-15T17:24:37.354Z,44.13
2022-09-15T17:27:07.976Z,43.55
2022-09-15T17:29:38.545Z,41.75
2022-09-15T17:32:10.597Z,42.70
2022-09-15T17:34:41.198Z,45.40
2022-09-15T17:37:11.715Z,44.17
2022-09-15T17:39:42.140Z,45.60
2022-09-15T17:42:12.574Z,47.55
2022-09-15T17:44:42.897Z,47.78
2022-09-15T17:47:13.526Z,45.42
2022-09-15T17:49:44.267Z,47.03
2022-09-15T17:52:14.026Z,45.40
2022-09-15T17:54:44.170Z,46.65
2022-09-15T17:57:14.024Z,48.10
2022-09-15T17:59:44.160Z,48.50
2022-09-15T18:02:20.460Z,49.28
2022-09-15T18:04:50.705Z,50.35
2022-09-15T18:07:20.662Z,55.40
2022-09-15T18:09:50.150Z,58.97
2022-09-15T18:12:21.200Z,58.90
2022-09-15T18:14:51.211Z,56.08
2022-09-15T18:17:21.390Z,56.53
2022-09-15T18:19:53.418Z,54.75
2022-09-15T18:24:55.390Z,49.53
2022-09-15T18:27:26.363Z,48.05
2022-09-15T18:29:56.373Z,50.45
2022-09-15T18:32:26.775Z,50.25
2022-09-15T18:34:56.468Z,51.40
2022-09-15T18:37:26.273Z,51.45
2022-09-15T18:39:56.433Z,50.58
2022-09-15T18:42:29.752Z,47.55
2022-09-15T18:45:01.555Z,48.80
2022-09-15T18:47:31.365Z,47.45
2022-09-15T18:50:02.764Z,44.72
2022-09-15T18:52:32.853Z,46.28
2022-09-15T18:55:03.750Z,47.63
2022-09-15T18:57:43.409Z,46.53
2022-09-15T19:00:22.676Z,46.47
2022-09-15T19:02:59.562Z,50.33
2022-09-15T19:05:31.991Z,51.28
2022-09-15T19:08:03.216Z,47.08
2022-09-15T19:10:34.123Z,45.83
2022-09-15T19:13:04.645Z,45.85
2022-09-15T19:15:36.039Z,47.72
2022-09-15T19:18:06.369Z,45.40
2022-09-15T19:20:36.498Z,48.03
2022-09-15T19:23:06.284Z,44.67
2022-09-15T19:25:36.348Z,44.72
2022-09-15T19:28:06.568Z,43.88
2022-09-15T19:30:36.704Z,43.72
2022-09-15T19:33:07.213Z,45.08
2022-09-15T19:35:37.377Z,43.97
2022-09-15T19:38:07.543Z,42.03
2022-09-15T19:40:37.479Z,43.45
2022-09-15T19:43:07.477Z,41.85
2022-09-15T19:45:37.837Z,42.92
2022-09-15T19:48:07.792Z,42.17
2022-09-15T19:50:37.729Z,40.95
2022-09-15T19:53:07.900Z,42.65
2022-09-15T19:55:38.042Z,44.55
2022-09-15T19:58:08.133Z,45.28
2022-09-15T20:00:38.419Z,42.40
2022-09-15T20:03:08.482Z,39.50
2022-09-15T20:05:38.319Z,40.45
2022-09-15T20:08:08.411Z,41.63
2022-09-15T20:10:41.084Z,40.72
2022-09-15T20:13:11.226Z,37.85
2022-09-15T20:15:41.995Z,38.83
2022-09-15T20:18:13.189Z,37.83
2022-09-15T20:20:43.327Z,38.22
2022-09-15T20:23:13.648Z,39.10
2022-09-15T20:25:43.321Z,38.30
2022-09-15T20:28:13.975Z,37.10
2022-09-15T20:30:43.714Z,37.70
2022-09-15T20:33:13.909Z,41.72
2022-09-15T20:35:43.632Z,39.72
2022-09-15T20:38:13.425Z,40.15
2022-09-15T20:40:43.628Z,41.55
2022-09-15T20:43:13.853Z,43.20
2022-09-15T20:45:43.685Z,44.67
2022-09-15T20:48:14.233Z,45.63
2022-09-15T20:50:44.505Z,43.05
2022-09-15T20:53:14.666Z,44.22
2022-09-15T20:55:51.675Z,41.72
2022-09-15T20:58:21.913Z,41.95
2022-09-15T21:00:53.422Z,42.20
2022-09-15T21:03:26.037Z,43.90
2022-09-15T21:06:02.106Z,42.33
2022-09-15T21:08:32.035Z,40.15
2022-09-15T21:11:03.275Z,39.55
2022-09-15T21:13:37.568Z,38.72
2022-09-15T21:16:10.660Z,37.75
2022-09-15T21:18:42.026Z,40.33
2022-09-15T21:21:17.900Z,38.42
2022-09-15T21:23:50.072Z,38.20
2022-09-15T21:26:28.983Z,35.70
2022-09-15T21:29:00.015Z,38.65
2022-09-15T21:31:32.701Z,38.58
2022-09-15T21:34:03.367Z,35.80
2022-09-15T21:36:33.534Z,34.67
2022-09-15T21:39:04.298Z,35.78
2022-09-15T21:41:34.206Z,34.78
2022-09-15T21:44:05.214Z,32.50
2022-09-15T21:46:35.194Z,33.95
2022-09-15T21:49:06.046Z,32.78
2022-09-15T21:51:35.803Z,32.28
2022-09-15T21:54:06.101Z,31.65
2022-09-15T21:56:36.105Z,29.40
2022-09-15T21:59:06.086Z,24.42
2022-09-15T22:01:36.099Z,20.77
2022-09-15T22:04:08.468Z,17.08
2022-09-15T22:09:12.362Z,10.02
2022-09-15T22:11:42.901Z,10.18
2022-09-15T22:14:14.439Z,5.65
2022-09-15T22:16:45.444Z,5.73
2022-09-15T22:19:15.423Z,7.13
2022-09-15T22:21:46.006Z,3.55
2022-09-15T22:24:20.423Z,5.13
2022-09-15T22:26:50.570Z,3.92
2022-09-15T22:29:20.433Z,5.15
2022-09-15T22:31:50.522Z,3.65
2022-09-15T22:34:20.406Z,4.13
2022-09-15T22:36:50.894Z,3.42
2022-09-15T22:39:21.712Z,3.20
2022-09-15T22:41:54.549Z,4.22
2022-09-15T22:44:24.537Z,3.50
2022-09-15T22:46:54.863Z,3.05
2022-09-15T22:49:28.947Z,3.42
2022-09-15T22:51:58.965Z,3.58
2022-09-15T22:54:29.312Z,3.75
2022-09-15T22:56:59.201Z,4.13
2022-09-15T22:59:29.422Z,4.05
2022-09-15T23:01:59.715Z,4.32
2022-09-15T23:04:29.659Z,4.38
2022-09-15T23:06:59.675Z,3.83
2022-09-15T23:09:29.370Z,3.25
2022-09-15T23:11:59.374Z,3.65
2022-09-15T23:14:29.653Z,3.20
2022-09-15T23:16:59.395Z,3.85
2022-09-15T23:19:30.049Z,3.38
2022-09-15T23:22:00.183Z,3.22
2022-09-15T23:24:30.109Z,3.33
2022-09-15T23:27:00.434Z,3.47
2022-09-15T23:29:30.372Z,3.42
2022-09-15T23:32:01.501Z,4.00
2022-09-15T23:34:31.719Z,4.35
2022-09-15T23:37:02.024Z,3.88
2022-09-15T23:39:32.042Z,4.93
2022-09-15T23:42:02.664Z,3.40
2022-09-15T23:44:32.676Z,4.50
2022-09-15T23:47:02.302Z,4.22
2022-09-15T23:49:32.409Z,4.90
2022-09-15T23:52:02.534Z,4.07
2022-09-15T23:54:32.763Z,4.03
2022-09-15T23:57:02.693Z,3.83
2022-09-15T23:59:32.172Z,3.72
